sensor_id;sensor_type;location;lat;lon;timestamp;P1;durP1;ratioP1;P2;durP2;ratioP2
39600;SDS011;25297;44.758;11.310;2022-12-07T00:00:40;75.50;;;37.58;;
39600;SDS011;25297;44.758;11.310;2022-12-07T00:03:06;73.03;;;37.00;;
39600;SDS011;25297;44.758;11.310;2022-12-07T00:05:31;65.30;;;34.03;;
39600;SDS011;25297;44.758;11.310;2022-12-07T00:07:57;64.35;;;32.72;;
39600;SDS011;25297;44.758;11.310;2022-12-07T00:10:22;64.47;;;31.73;;
39600;SDS011;25297;44.758;11.310;2022-12-07T00:12:48;60.13;;;31.60;;
39600;SDS011;25297;44.758;11.310;2022-12-07T00:15:15;53.63;;;29.63;;
39600;SDS011;25297;44.758;11.310;2022-12-07T00:17:40;62.47;;;32.58;;
39600;SDS011;25297;44.758;11.310;2022-12-07T00:20:06;60.78;;;31.08;;
39600;SDS011;25297;44.758;11.310;2022-12-07T00:22:32;58.03;;;30.75;;
39600;SDS011;25297;44.758;11.310;2022-12-07T00:24:58;58.92;;;31.92;;
39600;SDS011;25297;44.758;11.310;2022-12-07T00:27:23;60.22;;;31.30;;
39600;SDS011;25297;44.758;11.310;2022-12-07T00:29:49;59.40;;;31.75;;
39600;SDS011;25297;44.758;11.310;2022-12-07T00:32:14;63.15;;;31.95;;
39600;SDS011;25297;44.758;11.310;2022-12-07T00:34:40;80.65;;;33.22;;
39600;SDS011;25297;44.758;11.310;2022-12-07T00:37:06;68.82;;;34.22;;
39600;SDS011;25297;44.758;11.310;2022-12-07T00:39:31;81.88;;;35.00;;
39600;SDS011;25297;44.758;11.310;2022-12-07T00:41:57;110.90;;;37.67;;
39600;SDS011;25297;44.758;11.310;2022-12-07T00:44:22;85.95;;;34.55;;
39600;SDS011;25297;44.758;11.310;2022-12-07T00:46:48;96.47;;;34.05;;
39600;SDS011;25297;44.758;11.310;2022-12-07T00:49:14;77.40;;;33.30;;
39600;SDS011;25297;44.758;11.310;2022-12-07T00:51:39;82.05;;;31.80;;
39600;SDS011;25297;44.758;11.310;2022-12-07T00:54:05;123.70;;;33.30;;
39600;SDS011;25297;44.758;11.310;2022-12-07T00:56:30;81.22;;;31.48;;
39600;SDS011;25297;44.758;11.310;2022-12-07T00:59:00;76.03;;;30.90;;
39600;SDS011;25297;44.758;11.310;2022-12-07T01:01:28;94.90;;;33.35;;
39600;SDS011;25297;44.758;11.310;2022-12-07T01:03:59;102.05;;;31.45;;
39600;SDS011;25297;44.758;11.310;2022-12-07T01:06:26;106.97;;;31.58;;
39600;SDS011;25297;44.758;11.310;2022-12-07T01:08:52;113.03;;;32.88;;
39600;SDS011;25297;44.758;11.310;2022-12-07T01:11:19;106.22;;;33.35;;
39600;SDS011;25297;44.758;11.310;2022-12-07T01:13:48;100.38;;;31.77;;
39600;SDS011;25297;44.758;11.310;2022-12-07T01:16:16;116.53;;;34.20;;
39600;SDS011;25297;44.758;11.310;2022-12-07T01:18:42;110.57;;;34.25;;
39600;SDS011;25297;44.758;11.310;2022-12-07T01:21:13;81.68;;;33.17;;
39600;SDS011;25297;44.758;11.310;2022-12-07T01:23:40;110.90;;;34.15;;
39600;SDS011;25297;44.758;11.310;2022-12-07T01:26:07;147.98;;;36.28;;
39600;SDS011;25297;44.758;11.310;2022-12-07T01:28:35;112.50;;;33.83;;
39600;SDS011;25297;44.758;11.310;2022-12-07T01:31:03;116.00;;;31.48;;
39600;SDS011;25297;44.758;11.310;2022-12-07T01:33:34;108.88;;;33.03;;
39600;SDS011;25297;44.758;11.310;2022-12-07T01:36:05;94.43;;;32.10;;
39600;SDS011;25297;44.758;11.310;2022-12-07T01:38:41;98.30;;;33.42;;
39600;SDS011;25297;44.758;11.310;2022-12-07T01:41:07;109.20;;;33.33;;
39600;SDS011;25297;44.758;11.310;2022-12-07T01:43:33;119.80;;;35.58;;
39600;SDS011;25297;44.758;11.310;2022-12-07T01:46:00;100.55;;;32.65;;
39600;SDS011;25297;44.758;11.310;2022-12-07T01:48:34;98.72;;;33.67;;
39600;SDS011;25297;44.758;11.310;2022-12-07T01:51:07;108.78;;;35.20;;
39600;SDS011;25297;44.758;11.310;2022-12-07T01:53:36;131.27;;;35.47;;
39600;SDS011;25297;44.758;11.310;2022-12-07T01:56:05;88.05;;;33.33;;
39600;SDS011;25297;44.758;11.310;2022-12-07T01:58:33;142.82;;;35.53;;
39600;SDS011;25297;44.758;11.310;2022-12-07T02:00:59;126.65;;;36.58;;
39600;SDS011;25297;44.758;11.310;2022-12-07T02:03:27;159.52;;;37.90;;
39600;SDS011;25297;44.758;11.310;2022-12-07T02:05:58;128.50;;;35.78;;
39600;SDS011;25297;44.758;11.310;2022-12-07T02:08:25;124.15;;;37.20;;
39600;SDS011;25297;44.758;11.310;2022-12-07T02:10:51;142.13;;;38.70;;
39600;SDS011;25297;44.758;11.310;2022-12-07T02:13:22;174.70;;;38.03;;
39600;SDS011;25297;44.758;11.310;2022-12-07T02:21:24;104.80;;;37.60;;
39600;SDS011;25297;44.758;11.310;2022-12-07T02:26:33;113.00;;;35.08;;
39600;SDS011;25297;44.758;11.310;2022-12-07T02:31:43;134.68;;;36.20;;
39600;SDS011;25297;44.758;11.310;2022-12-07T02:37:27;93.17;;;34.47;;
39600;SDS011;25297;44.758;11.310;2022-12-07T02:40:25;102.93;;;35.97;;
39600;SDS011;25297;44.758;11.310;2022-12-07T02:42:55;138.40;;;36.38;;
39600;SDS011;25297;44.758;11.310;2022-12-07T02:45:34;158.40;;;35.25;;
39600;SDS011;25297;44.758;11.310;2022-12-07T02:48:03;124.80;;;36.47;;
39600;SDS011;25297;44.758;11.310;2022-12-07T02:50:30;115.72;;;35.22;;
39600;SDS011;25297;44.758;11.310;2022-12-07T02:52:56;158.35;;;36.63;;
39600;SDS011;25297;44.758;11.310;2022-12-07T02:55:25;113.65;;;35.28;;
39600;SDS011;25297;44.758;11.310;2022-12-07T03:00:31;123.60;;;34.65;;
39600;SDS011;25297;44.758;11.310;2022-12-07T03:03:09;151.80;;;38.40;;
39600;SDS011;25297;44.758;11.310;2022-12-07T03:08:15;136.07;;;37.67;;
39600;SDS011;25297;44.758;11.310;2022-12-07T03:10:54;115.95;;;39.20;;
39600;SDS011;25297;44.758;11.310;2022-12-07T03:13:41;109.55;;;37.00;;
39600;SDS011;25297;44.758;11.310;2022-12-07T03:16:31;111.47;;;37.58;;
39600;SDS011;25297;44.758;11.310;2022-12-07T03:19:02;113.20;;;34.80;;
39600;SDS011;25297;44.758;11.310;2022-12-07T03:22:01;121.22;;;38.38;;
39600;SDS011;25297;44.758;11.310;2022-12-07T03:24:31;112.47;;;37.38;;
39600;SDS011;25297;44.758;11.310;2022-12-07T03:29:38;87.80;;;35.10;;
39600;SDS011;25297;44.758;11.310;2022-12-07T03:34:46;86.75;;;37.97;;
39600;SDS011;25297;44.758;11.310;2022-12-07T03:37:25;94.25;;;37.75;;
39600;SDS011;25297;44.758;11.310;2022-12-07T03:42:41;86.15;;;35.80;;
39600;SDS011;25297;44.758;11.310;2022-12-07T03:45:07;87.10;;;37.05;;
39600;SDS011;25297;44.758;11.310;2022-12-07T03:47:36;93.95;;;38.35;;
39600;SDS011;25297;44.758;11.310;2022-12-07T03:53:11;86.18;;;36.15;;
39600;SDS011;25297;44.758;11.310;2022-12-07T03:55:52;80.97;;;34.50;;
39600;SDS011;25297;44.758;11.310;2022-12-07T03:58:20;77.28;;;34.65;;
39600;SDS011;25297;44.758;11.310;2022-12-07T04:00:47;74.40;;;34.75;;
39600;SDS011;25297;44.758;11.310;2022-12-07T04:03:14;73.35;;;32.70;;
39600;SDS011;25297;44.758;11.310;2022-12-07T04:05:40;69.18;;;32.63;;
39600;SDS011;25297;44.758;11.310;2022-12-07T04:08:06;72.63;;;33.35;;
39600;SDS011;25297;44.758;11.310;2022-12-07T04:10:31;65.20;;;32.50;;
39600;SDS011;25297;44.758;11.310;2022-12-07T04:12:57;65.88;;;32.42;;
39600;SDS011;25297;44.758;11.310;2022-12-07T04:15:23;61.38;;;32.05;;
39600;SDS011;25297;44.758;11.310;2022-12-07T04:17:48;61.42;;;31.67;;
39600;SDS011;25297;44.758;11.310;2022-12-07T04:20:14;61.60;;;30.67;;
39600;SDS011;25297;44.758;11.310;2022-12-07T04:22:40;70.95;;;33.92;;
39600;SDS011;25297;44.758;11.310;2022-12-07T04:25:05;65.30;;;32.88;;
39600;SDS011;25297;44.758;11.310;2022-12-07T04:27:31;57.53;;;31.00;;
39600;SDS011;25297;44.758;11.310;2022-12-07T04:29:57;59.03;;;30.15;;
39600;SDS011;25297;44.758;11.310;2022-12-07T04:32:23;60.08;;;31.45;;
39600;SDS011;25297;44.758;11.310;2022-12-07T04:34:49;57.85;;;30.73;;
39600;SDS011;25297;44.758;11.310;2022-12-07T04:37:14;60.10;;;30.52;;
39600;SDS011;25297;44.758;11.310;2022-12-07T04:39:41;67.95;;;32.05;;
39600;SDS011;25297;44.758;11.310;2022-12-07T04:42:08;63.58;;;31.48;;
39600;SDS011;25297;44.758;11.310;2022-12-07T04:44:34;67.68;;;30.45;;
39600;SDS011;25297;44.758;11.310;2022-12-07T04:47:00;59.33;;;30.65;;
39600;SDS011;25297;44.758;11.310;2022-12-07T04:49:25;61.28;;;30.17;;
39600;SDS011;25297;44.758;11.310;2022-12-07T04:51:51;54.70;;;28.45;;
39600;SDS011;25297;44.758;11.310;2022-12-07T04:54:17;54.17;;;28.77;;
39600;SDS011;25297;44.758;11.310;2022-12-07T04:56:42;55.08;;;28.73;;
39600;SDS011;25297;44.758;11.310;2022-12-07T04:59:09;54.00;;;28.35;;
39600;SDS011;25297;44.758;11.310;2022-12-07T05:01:35;56.88;;;30.20;;
39600;SDS011;25297;44.758;11.310;2022-12-07T05:04:01;56.67;;;29.85;;
39600;SDS011;25297;44.758;11.310;2022-12-07T05:06:27;65.28;;;32.60;;
39600;SDS011;25297;44.758;11.310;2022-12-07T05:08:53;73.45;;;33.85;;
39600;SDS011;25297;44.758;11.310;2022-12-07T05:11:18;76.28;;;35.40;;
39600;SDS011;25297;44.758;11.310;2022-12-07T05:14:03;81.45;;;36.90;;
39600;SDS011;25297;44.758;11.310;2022-12-07T05:16:35;82.22;;;38.05;;
39600;SDS011;25297;44.758;11.310;2022-12-07T05:19:01;92.30;;;39.05;;
39600;SDS011;25297;44.758;11.310;2022-12-07T05:21:27;85.55;;;37.78;;
39600;SDS011;25297;44.758;11.310;2022-12-07T05:23:53;81.47;;;37.80;;
39600;SDS011;25297;44.758;11.310;2022-12-07T05:26:18;88.65;;;36.03;;
39600;SDS011;25297;44.758;11.310;2022-12-07T05:28:44;84.13;;;34.45;;
39600;SDS011;25297;44.758;11.310;2022-12-07T05:31:10;66.93;;;30.98;;
39600;SDS011;25297;44.758;11.310;2022-12-07T05:33:35;65.95;;;31.25;;
39600;SDS011;25297;44.758;11.310;2022-12-07T05:36:01;48.47;;;26.55;;
39600;SDS011;25297;44.758;11.310;2022-12-07T05:38:30;57.67;;;28.00;;
39600;SDS011;25297;44.758;11.310;2022-12-07T05:40:59;53.45;;;27.15;;
39600;SDS011;25297;44.758;11.310;2022-12-07T05:43:26;55.03;;;28.00;;
39600;SDS011;25297;44.758;11.310;2022-12-07T05:45:52;47.05;;;26.70;;
39600;SDS011;25297;44.758;11.310;2022-12-07T05:48:18;59.88;;;26.38;;
39600;SDS011;25297;44.758;11.310;2022-12-07T05:50:43;48.80;;;26.10;;
39600;SDS011;25297;44.758;11.310;2022-12-07T05:53:12;56.05;;;27.38;;
39600;SDS011;25297;44.758;11.310;2022-12-07T05:55:37;62.25;;;30.02;;
39600;SDS011;25297;44.758;11.310;2022-12-07T05:58:03;51.45;;;27.08;;
39600;SDS011;25297;44.758;11.310;2022-12-07T06:00:47;57.72;;;28.60;;
39600;SDS011;25297;44.758;11.310;2022-12-07T06:03:13;60.60;;;28.35;;
39600;SDS011;25297;44.758;11.310;2022-12-07T06:05:38;57.78;;;28.52;;
39600;SDS011;25297;44.758;11.310;2022-12-07T06:08:04;63.53;;;30.88;;
39600;SDS011;25297;44.758;11.310;2022-12-07T06:10:30;56.97;;;27.52;;
39600;SDS011;25297;44.758;11.310;2022-12-07T06:12:56;59.35;;;30.25;;
39600;SDS011;25297;44.758;11.310;2022-12-07T06:15:21;61.30;;;28.55;;
39600;SDS011;25297;44.758;11.310;2022-12-07T06:17:48;61.33;;;30.38;;
39600;SDS011;25297;44.758;11.310;2022-12-07T06:20:13;62.97;;;30.02;;
39600;SDS011;25297;44.758;11.310;2022-12-07T06:22:39;61.88;;;29.45;;
39600;SDS011;25297;44.758;11.310;2022-12-07T06:25:05;58.75;;;30.20;;
39600;SDS011;25297;44.758;11.310;2022-12-07T06:27:32;52.15;;;26.67;;
39600;SDS011;25297;44.758;11.310;2022-12-07T06:29:58;56.30;;;28.55;;
39600;SDS011;25297;44.758;11.310;2022-12-07T06:32:24;52.00;;;26.17;;
39600;SDS011;25297;44.758;11.310;2022-12-07T06:34:49;52.22;;;27.50;;
39600;SDS011;25297;44.758;11.310;2022-12-07T06:37:15;48.92;;;26.40;;
39600;SDS011;25297;44.758;11.310;2022-12-07T06:39:41;51.47;;;26.70;;
39600;SDS011;25297;44.758;11.310;2022-12-07T06:42:07;47.53;;;24.67;;
39600;SDS011;25297;44.758;11.310;2022-12-07T06:44:33;57.10;;;27.63;;
39600;SDS011;25297;44.758;11.310;2022-12-07T06:46:58;48.38;;;27.00;;
39600;SDS011;25297;44.758;11.310;2022-12-07T06:49:24;55.55;;;27.80;;
39600;SDS011;25297;44.758;11.310;2022-12-07T06:51:50;53.35;;;27.90;;
39600;SDS011;25297;44.758;11.310;2022-12-07T06:54:15;54.42;;;27.35;;
39600;SDS011;25297;44.758;11.310;2022-12-07T06:56:41;53.28;;;27.70;;
39600;SDS011;25297;44.758;11.310;2022-12-07T06:59:07;52.22;;;26.92;;
39600;SDS011;25297;44.758;11.310;2022-12-07T07:01:34;56.33;;;26.65;;
39600;SDS011;25297;44.758;11.310;2022-12-07T07:04:01;57.45;;;25.88;;
39600;SDS011;25297;44.758;11.310;2022-12-07T07:06:27;52.45;;;26.83;;
39600;SDS011;25297;44.758;11.310;2022-12-07T07:08:53;53.65;;;28.25;;
39600;SDS011;25297;44.758;11.310;2022-12-07T07:11:18;56.35;;;28.25;;
39600;SDS011;25297;44.758;11.310;2022-12-07T07:13:44;53.25;;;26.88;;
39600;SDS011;25297;44.758;11.310;2022-12-07T07:16:10;53.17;;;27.52;;
39600;SDS011;25297;44.758;11.310;2022-12-07T07:18:37;49.17;;;26.65;;
39600;SDS011;25297;44.758;11.310;2022-12-07T07:21:03;44.78;;;24.88;;
39600;SDS011;25297;44.758;11.310;2022-12-07T07:23:29;42.67;;;24.48;;
39600;SDS011;25297;44.758;11.310;2022-12-07T07:25:55;45.20;;;25.02;;
39600;SDS011;25297;44.758;11.310;2022-12-07T07:28:21;47.92;;;26.80;;
39600;SDS011;25297;44.758;11.310;2022-12-07T07:30:47;44.47;;;26.02;;
39600;SDS011;25297;44.758;11.310;2022-12-07T07:33:13;45.67;;;24.08;;
39600;SDS011;25297;44.758;11.310;2022-12-07T07:35:38;50.05;;;25.90;;
39600;SDS011;25297;44.758;11.310;2022-12-07T07:38:04;53.28;;;26.73;;
39600;SDS011;25297;44.758;11.310;2022-12-07T07:40:30;51.08;;;26.90;;
39600;SDS011;25297;44.758;11.310;2022-12-07T07:42:56;48.78;;;26.02;;
39600;SDS011;25297;44.758;11.310;2022-12-07T07:45:23;48.88;;;24.98;;
39600;SDS011;25297;44.758;11.310;2022-12-07T07:47:50;45.78;;;25.48;;
39600;SDS011;25297;44.758;11.310;2022-12-07T07:50:16;44.03;;;24.80;;
39600;SDS011;25297;44.758;11.310;2022-12-07T07:52:42;46.50;;;26.80;;
39600;SDS011;25297;44.758;11.310;2022-12-07T07:55:09;48.13;;;26.65;;
39600;SDS011;25297;44.758;11.310;2022-12-07T07:57:35;47.05;;;26.83;;
39600;SDS011;25297;44.758;11.310;2022-12-07T08:00:03;51.15;;;29.38;;
39600;SDS011;25297;44.758;11.310;2022-12-07T08:02:31;44.28;;;25.70;;
39600;SDS011;25297;44.758;11.310;2022-12-07T08:04:57;42.58;;;24.40;;
39600;SDS011;25297;44.758;11.310;2022-12-07T08:07:23;46.15;;;24.98;;
39600;SDS011;25297;44.758;11.310;2022-12-07T08:09:48;45.00;;;25.63;;
39600;SDS011;25297;44.758;11.310;2022-12-07T08:12:14;45.22;;;25.98;;
39600;SDS011;25297;44.758;11.310;2022-12-07T08:14:39;44.25;;;24.58;;
39600;SDS011;25297;44.758;11.310;2022-12-07T08:17:06;45.75;;;25.95;;
39600;SDS011;25297;44.758;11.310;2022-12-07T08:19:31;49.90;;;27.08;;
39600;SDS011;25297;44.758;11.310;2022-12-07T08:21:58;47.67;;;26.77;;
39600;SDS011;25297;44.758;11.310;2022-12-07T08:24:23;50.22;;;28.33;;
39600;SDS011;25297;44.758;11.310;2022-12-07T08:26:50;44.72;;;27.23;;
39600;SDS011;25297;44.758;11.310;2022-12-07T08:29:16;45.58;;;26.30;;
39600;SDS011;25297;44.758;11.310;2022-12-07T08:31:42;42.70;;;25.08;;
39600;SDS011;25297;44.758;11.310;2022-12-07T08:34:09;45.13;;;25.38;;
39600;SDS011;25297;44.758;11.310;2022-12-07T08:36:36;44.78;;;25.50;;
39600;SDS011;25297;44.758;11.310;2022-12-07T08:39:01;45.05;;;25.42;;
39600;SDS011;25297;44.758;11.310;2022-12-07T08:41:27;52.42;;;27.63;;
39600;SDS011;25297;44.758;11.310;2022-12-07T08:43:53;49.95;;;27.92;;
39600;SDS011;25297;44.758;11.310;2022-12-07T08:46:20;51.03;;;28.40;;
39600;SDS011;25297;44.758;11.310;2022-12-07T08:51:24;50.17;;;27.15;;
39600;SDS011;25297;44.758;11.310;2022-12-07T08:53:50;46.70;;;26.90;;
39600;SDS011;25297;44.758;11.310;2022-12-07T08:56:17;49.00;;;27.50;;
39600;SDS011;25297;44.758;11.310;2022-12-07T08:58:43;46.25;;;25.92;;
39600;SDS011;25297;44.758;11.310;2022-12-07T09:01:09;45.22;;;25.95;;
39600;SDS011;25297;44.758;11.310;2022-12-07T09:03:35;48.40;;;25.65;;
39600;SDS011;25297;44.758;11.310;2022-12-07T09:06:02;50.97;;;27.25;;
39600;SDS011;25297;44.758;11.310;2022-12-07T09:08:32;47.03;;;26.65;;
39600;SDS011;25297;44.758;11.310;2022-12-07T09:11:01;50.42;;;27.05;;
39600;SDS011;25297;44.758;11.310;2022-12-07T09:13:27;52.47;;;27.17;;
39600;SDS011;25297;44.758;11.310;2022-12-07T09:15:52;49.72;;;27.23;;
39600;SDS011;25297;44.758;11.310;2022-12-07T09:18:18;52.63;;;26.52;;
39600;SDS011;25297;44.758;11.310;2022-12-07T09:20:43;53.67;;;27.33;;
39600;SDS011;25297;44.758;11.310;2022-12-07T09:23:09;52.45;;;29.17;;
39600;SDS011;25297;44.758;11.310;2022-12-07T09:25:35;55.30;;;28.80;;
39600;SDS011;25297;44.758;11.310;2022-12-07T09:28:00;54.40;;;29.27;;
39600;SDS011;25297;44.758;11.310;2022-12-07T09:30:26;54.55;;;28.45;;
39600;SDS011;25297;44.758;11.310;2022-12-07T09:32:53;56.05;;;28.67;;
39600;SDS011;25297;44.758;11.310;2022-12-07T09:35:20;57.03;;;28.42;;
39600;SDS011;25297;44.758;11.310;2022-12-07T09:37:46;52.13;;;28.02;;
39600;SDS011;25297;44.758;11.310;2022-12-07T09:40:12;49.67;;;26.83;;
39600;SDS011;25297;44.758;11.310;2022-12-07T09:42:41;54.70;;;28.27;;
39600;SDS011;25297;44.758;11.310;2022-12-07T09:45:19;56.40;;;28.42;;
39600;SDS011;25297;44.758;11.310;2022-12-07T09:47:52;49.40;;;26.95;;
39600;SDS011;25297;44.758;11.310;2022-12-07T09:50:24;55.88;;;28.98;;
39600;SDS011;25297;44.758;11.310;2022-12-07T09:52:51;58.47;;;29.70;;
39600;SDS011;25297;44.758;11.310;2022-12-07T09:55:27;55.42;;;29.45;;
39600;SDS011;25297;44.758;11.310;2022-12-07T09:57:54;58.72;;;30.67;;
39600;SDS011;25297;44.758;11.310;2022-12-07T10:00:22;54.38;;;29.60;;
39600;SDS011;25297;44.758;11.310;2022-12-07T10:05:26;59.13;;;31.58;;
39600;SDS011;25297;44.758;11.310;2022-12-07T10:10:40;55.03;;;30.55;;
39600;SDS011;25297;44.758;11.310;2022-12-07T10:13:08;49.28;;;29.02;;
39600;SDS011;25297;44.758;11.310;2022-12-07T10:15:57;56.00;;;32.58;;
39600;SDS011;25297;44.758;11.310;2022-12-07T10:18:36;54.25;;;32.08;;
39600;SDS011;25297;44.758;11.310;2022-12-07T10:23:35;54.38;;;33.17;;
39600;SDS011;25297;44.758;11.310;2022-12-07T10:28:53;54.22;;;33.28;;
39600;SDS011;25297;44.758;11.310;2022-12-07T10:31:21;55.20;;;33.28;;
39600;SDS011;25297;44.758;11.310;2022-12-07T10:33:52;55.80;;;33.78;;
39600;SDS011;25297;44.758;11.310;2022-12-07T10:36:43;49.38;;;31.15;;
39600;SDS011;25297;44.758;11.310;2022-12-07T10:44:27;47.88;;;28.88;;
39600;SDS011;25297;44.758;11.310;2022-12-07T10:47:18;50.40;;;32.42;;
39600;SDS011;25297;44.758;11.310;2022-12-07T11:06:41;41.03;;;28.38;;
39600;SDS011;25297;44.758;11.310;2022-12-07T11:15:36;40.88;;;24.73;;
39600;SDS011;25297;44.758;11.310;2022-12-07T11:24:17;44.45;;;27.65;;
39600;SDS011;25297;44.758;11.310;2022-12-07T11:29:33;38.57;;;25.37;;
39600;SDS011;25297;44.758;11.310;2022-12-07T11:37:18;43.10;;;25.52;;
39600;SDS011;25297;44.758;11.310;2022-12-07T11:39:51;40.80;;;23.65;;
39600;SDS011;25297;44.758;11.310;2022-12-07T11:47:48;46.47;;;25.35;;
39600;SDS011;25297;44.758;11.310;2022-12-07T12:01:42;42.22;;;23.90;;
39600;SDS011;25297;44.758;11.310;2022-12-07T12:06:34;38.17;;;23.63;;
39600;SDS011;25297;44.758;11.310;2022-12-07T12:09:22;39.80;;;24.08;;
39600;SDS011;25297;44.758;11.310;2022-12-07T12:12:04;42.53;;;25.25;;
39600;SDS011;25297;44.758;11.310;2022-12-07T12:23:09;40.22;;;24.25;;
39600;SDS011;25297;44.758;11.310;2022-12-07T12:28:15;36.97;;;23.25;;
39600;SDS011;25297;44.758;11.310;2022-12-07T12:33:36;46.85;;;28.88;;
39600;SDS011;25297;44.758;11.310;2022-12-07T12:36:21;41.38;;;26.70;;
39600;SDS011;25297;44.758;11.310;2022-12-07T12:54:39;53.58;;;31.67;;
39600;SDS011;25297;44.758;11.310;2022-12-07T13:00:01;52.13;;;33.00;;
39600;SDS011;25297;44.758;11.310;2022-12-07T13:18:02;44.20;;;28.77;;
39600;SDS011;25297;44.758;11.310;2022-12-07T13:24:01;45.97;;;30.55;;
39600;SDS011;25297;44.758;11.310;2022-12-07T13:29:04;44.45;;;28.13;;
39600;SDS011;25297;44.758;11.310;2022-12-07T13:31:47;44.80;;;27.00;;
39600;SDS011;25297;44.758;11.310;2022-12-07T13:34:37;43.42;;;29.05;;
39600;SDS011;25297;44.758;11.310;2022-12-07T13:37:14;41.72;;;26.83;;
39600;SDS011;25297;44.758;11.310;2022-12-07T13:39:53;40.22;;;26.17;;
39600;SDS011;25297;44.758;11.310;2022-12-07T13:42:28;43.78;;;28.60;;
39600;SDS011;25297;44.758;11.310;2022-12-07T13:44:56;40.70;;;27.10;;
39600;SDS011;25297;44.758;11.310;2022-12-07T13:50:00;76.88;;;29.38;;
39600;SDS011;25297;44.758;11.310;2022-12-07T13:52:27;44.47;;;27.60;;
39600;SDS011;25297;44.758;11.310;2022-12-07T13:57:22;35.70;;;23.60;;
39600;SDS011;25297;44.758;11.310;2022-12-07T13:59:50;39.90;;;25.00;;
39600;SDS011;25297;44.758;11.310;2022-12-07T14:04:48;37.58;;;24.20;;
39600;SDS011;25297;44.758;11.310;2022-12-07T14:07:20;33.22;;;24.05;;
39600;SDS011;25297;44.758;11.310;2022-12-07T14:10:22;34.10;;;22.25;;
39600;SDS011;25297;44.758;11.310;2022-12-07T14:12:56;31.38;;;20.92;;
39600;SDS011;25297;44.758;11.310;2022-12-07T14:15:29;33.35;;;22.05;;
39600;SDS011;25297;44.758;11.310;2022-12-07T14:17:58;30.25;;;20.52;;
39600;SDS011;25297;44.758;11.310;2022-12-07T14:20:29;29.77;;;21.35;;
39600;SDS011;25297;44.758;11.310;2022-12-07T14:23:00;28.75;;;20.92;;
39600;SDS011;25297;44.758;11.310;2022-12-07T14:25:43;27.20;;;19.42;;
39600;SDS011;25297;44.758;11.310;2022-12-07T14:30:53;31.85;;;23.50;;
39600;SDS011;25297;44.758;11.310;2022-12-07T14:33:18;33.70;;;23.73;;
39600;SDS011;25297;44.758;11.310;2022-12-07T14:35:45;33.65;;;23.48;;
39600;SDS011;25297;44.758;11.310;2022-12-07T14:38:11;30.17;;;22.60;;
39600;SDS011;25297;44.758;11.310;2022-12-07T14:40:37;30.75;;;23.90;;
39600;SDS011;25297;44.758;11.310;2022-12-07T14:43:10;35.72;;;24.83;;
39600;SDS011;25297;44.758;11.310;2022-12-07T14:45:38;35.42;;;25.17;;
39600;SDS011;25297;44.758;11.310;2022-12-07T14:48:11;35.08;;;25.02;;
39600;SDS011;25297;44.758;11.310;2022-12-07T14:50:42;34.13;;;24.40;;
39600;SDS011;25297;44.758;11.310;2022-12-07T14:53:15;28.83;;;23.13;;
39600;SDS011;25297;44.758;11.310;2022-12-07T14:55:43;36.88;;;24.98;;
39600;SDS011;25297;44.758;11.310;2022-12-07T14:58:15;31.30;;;23.83;;
39600;SDS011;25297;44.758;11.310;2022-12-07T15:00:42;34.65;;;24.50;;
39600;SDS011;25297;44.758;11.310;2022-12-07T15:03:08;34.75;;;23.73;;
39600;SDS011;25297;44.758;11.310;2022-12-07T15:05:34;36.80;;;24.80;;
39600;SDS011;25297;44.758;11.310;2022-12-07T15:08:01;39.20;;;26.67;;
39600;SDS011;25297;44.758;11.310;2022-12-07T15:10:28;36.53;;;25.35;;
39600;SDS011;25297;44.758;11.310;2022-12-07T15:13:00;38.08;;;25.73;;
39600;SDS011;25297;44.758;11.310;2022-12-07T15:15:46;36.30;;;26.20;;
39600;SDS011;25297;44.758;11.310;2022-12-07T15:18:13;37.47;;;25.67;;
39600;SDS011;25297;44.758;11.310;2022-12-07T15:20:39;38.05;;;25.83;;
39600;SDS011;25297;44.758;11.310;2022-12-07T15:23:04;46.25;;;26.48;;
39600;SDS011;25297;44.758;11.310;2022-12-07T15:25:31;35.10;;;25.73;;
39600;SDS011;25297;44.758;11.310;2022-12-07T15:27:56;38.78;;;25.55;;
39600;SDS011;25297;44.758;11.310;2022-12-07T15:30:22;40.08;;;27.48;;
39600;SDS011;25297;44.758;11.310;2022-12-07T15:32:51;37.08;;;25.13;;
39600;SDS011;25297;44.758;11.310;2022-12-07T15:35:17;40.83;;;27.02;;
39600;SDS011;25297;44.758;11.310;2022-12-07T15:37:43;39.70;;;27.65;;
39600;SDS011;25297;44.758;11.310;2022-12-07T15:40:09;41.25;;;27.65;;
39600;SDS011;25297;44.758;11.310;2022-12-07T15:42:36;43.58;;;28.85;;
39600;SDS011;25297;44.758;11.310;2022-12-07T15:45:02;44.13;;;29.38;;
39600;SDS011;25297;44.758;11.310;2022-12-07T15:47:36;51.60;;;31.67;;
39600;SDS011;25297;44.758;11.310;2022-12-07T15:50:07;45.13;;;29.58;;
39600;SDS011;25297;44.758;11.310;2022-12-07T15:52:35;49.88;;;32.40;;
39600;SDS011;25297;44.758;11.310;2022-12-07T15:55:01;48.33;;;30.73;;
39600;SDS011;25297;44.758;11.310;2022-12-07T15:57:28;48.03;;;31.00;;
39600;SDS011;25297;44.758;11.310;2022-12-07T15:59:57;46.13;;;30.17;;
39600;SDS011;25297;44.758;11.310;2022-12-07T16:02:23;44.10;;;29.13;;
39600;SDS011;25297;44.758;11.310;2022-12-07T16:04:49;48.70;;;29.83;;
39600;SDS011;25297;44.758;11.310;2022-12-07T16:07:15;43.70;;;29.77;;
39600;SDS011;25297;44.758;11.310;2022-12-07T16:09:42;46.58;;;28.40;;
39600;SDS011;25297;44.758;11.310;2022-12-07T16:12:09;45.63;;;28.67;;
39600;SDS011;25297;44.758;11.310;2022-12-07T16:14:36;46.10;;;29.63;;
39600;SDS011;25297;44.758;11.310;2022-12-07T16:17:02;45.33;;;28.75;;
39600;SDS011;25297;44.758;11.310;2022-12-07T16:19:29;47.38;;;29.13;;
39600;SDS011;25297;44.758;11.310;2022-12-07T16:21:55;53.78;;;33.95;;
39600;SDS011;25297;44.758;11.310;2022-12-07T16:24:21;73.68;;;42.90;;
39600;SDS011;25297;44.758;11.310;2022-12-07T16:26:47;79.75;;;44.17;;
39600;SDS011;25297;44.758;11.310;2022-12-07T16:29:13;61.60;;;38.55;;
39600;SDS011;25297;44.758;11.310;2022-12-07T16:31:40;71.43;;;41.60;;
39600;SDS011;25297;44.758;11.310;2022-12-07T16:34:06;69.88;;;41.60;;
39600;SDS011;25297;44.758;11.310;2022-12-07T16:36:32;55.45;;;35.00;;
39600;SDS011;25297;44.758;11.310;2022-12-07T16:38:58;45.58;;;29.88;;
39600;SDS011;25297;44.758;11.310;2022-12-07T16:41:24;53.40;;;30.02;;
39600;SDS011;25297;44.758;11.310;2022-12-07T16:43:50;57.92;;;30.67;;
39600;SDS011;25297;44.758;11.310;2022-12-07T16:46:16;50.45;;;27.95;;
39600;SDS011;25297;44.758;11.310;2022-12-07T16:48:42;77.20;;;30.17;;
39600;SDS011;25297;44.758;11.310;2022-12-07T16:51:08;53.88;;;30.95;;
39600;SDS011;25297;44.758;11.310;2022-12-07T16:53:35;87.30;;;31.63;;
39600;SDS011;25297;44.758;11.310;2022-12-07T16:56:02;91.80;;;32.03;;
39600;SDS011;25297;44.758;11.310;2022-12-07T16:58:28;102.45;;;34.17;;
39600;SDS011;25297;44.758;11.310;2022-12-07T17:00:54;82.15;;;32.95;;
39600;SDS011;25297;44.758;11.310;2022-12-07T17:03:20;72.68;;;34.13;;